Time;durP1;ratioP1;P1;durP2;ratioP2;P2;SDS_P1;SDS_P2;PMS_P1;PMS_P2;Temp;Humidity;BMP_temperature;BMP_pressure;BME280_temperature;BME280_humidity;BME280_pressure;Samples;Min_cycle;Max_cycle;Signal;HPM_P1;HPM_P2
2022/08/26 00:01:30;;;;;;;8.98;1.52;;;;;;;18.71;100.00;101762.66;5093175;28;20099;-73
2022/08/26 00:03:57;;;;;;;6.35;1.60;;;;;;;18.69;100.00;101760.16;5092755;28;20557;-73
2022/08/26 00:06:22;;;;;;;9.80;1.60;;;;;;;18.68;100.00;101764.69;5075442;28;20042;-72
2022/08/26 00:08:48;;;;;;;12.25;1.52;;;;;;;18.67;100.00;101754.94;5093108;28;20035;-72
2022/08/26 00:11:13;;;;;;;4.70;1.23;;;;;;;18.68;100.00;101761.16;5092429;28;20327;-72
2022/08/26 00:13:39;;;;;;;6.82;1.50;;;;;;;18.64;100.00;101755.25;5093230;28;20035;-73
2022/08/26 00:16:06;;;;;;;6.10;1.27;;;;;;;18.61;100.00;101762.84;5092349;28;20066;-73
2022/08/26 00:18:32;;;;;;;6.22;1.20;;;;;;;18.53;100.00;101761.00;5092837;28;20044;-73
2022/08/26 00:20:57;;;;;;;6.75;1.50;;;;;;;18.48;100.00;101756.13;5092377;28;20098;-73
2022/08/26 00:23:23;;;;;;;5.95;1.30;;;;;;;18.42;100.00;101759.50;5093042;28;20490;-73
2022/08/26 00:25:49;;;;;;;5.95;1.70;;;;;;;18.35;100.00;101763.00;5092639;28;20360;-72
2022/08/26 00:28:15;;;;;;;8.10;1.38;;;;;;;18.30;100.00;101768.88;5092366;28;20104;-73
2022/08/26 00:30:40;;;;;;;6.43;1.30;;;;;;;18.27;100.00;101774.63;5092766;28;20044;-73
2022/08/26 00:33:06;;;;;;;5.00;1.10;;;;;;;18.24;100.00;101759.66;5092505;28;20358;-73
2022/08/26 00:35:33;;;;;;;5.05;1.15;;;;;;;18.23;100.00;101757.97;5092804;28;20035;-73
2022/08/26 00:37:59;;;;;;;8.10;1.40;;;;;;;18.22;100.00;101763.50;5092391;28;20032;-74
2022/08/26 00:40:31;;;;;;;7.10;1.02;;;;;;;18.22;100.00;101766.22;5092876;28;20040;-73
2022/08/26 00:42:56;;;;;;;8.60;1.50;;;;;;;18.20;100.00;101770.91;5092707;28;20107;-73
2022/08/26 00:45:22;;;;;;;7.63;2.03;;;;;;;18.18;100.00;101773.75;5092091;28;20386;-73
2022/08/26 00:47:56;;;;;;;10.27;1.50;;;;;;;18.14;100.00;101773.25;5092562;28;20028;-73
2022/08/26 00:50:25;;;;;;;9.40;1.65;;;;;;;18.12;100.00;101772.59;5092389;28;20031;-73
2022/08/26 00:52:52;;;;;;;7.95;1.58;;;;;;;18.12;100.00;101771.75;5092315;28;20024;-73
2022/08/26 00:55:22;;;;;;;8.82;1.40;;;;;;;18.13;100.00;101770.75;5091847;28;20036;-74
2022/08/26 00:57:49;;;;;;;4.72;1.38;;;;;;;18.14;100.00;101767.88;5092399;28;20491;-73
2022/08/26 01:00:19;;;;;;;5.88;1.63;;;;;;;18.14;100.00;101767.06;5091942;28;20118;-73
2022/08/26 01:02:47;;;;;;;7.93;1.58;;;;;;;18.13;100.00;101774.25;5092476;28;20077;-73
2022/08/26 01:05:14;;;;;;;8.05;1.33;;;;;;;18.11;100.00;101778.16;5091965;28;20171;-74
2022/08/26 01:07:39;;;;;;;6.97;1.58;;;;;;;18.09;100.00;101769.38;5092412;28;20073;-73
2022/08/26 01:10:12;;;;;;;5.88;1.40;;;;;;;18.08;100.00;101768.53;5091946;28;20040;-73
2022/08/26 01:12:52;;;;;;;5.35;1.42;;;;;;;18.07;100.00;101766.84;5092330;28;20039;-73
2022/08/26 01:15:23;;;;;;;9.10;1.30;;;;;;;18.05;100.00;101765.31;5091879;28;20028;-73
2022/08/26 01:17:49;;;;;;;6.85;1.98;;;;;;;18.05;100.00;101759.94;5092386;28;20063;-73
2022/08/26 01:20:30;;;;;;;10.57;1.80;;;;;;;18.05;100.00;101757.25;5091842;28;20043;-73
2022/08/26 01:23:06;;;;;;;5.80;1.65;;;;;;;18.04;100.00;101760.97;5073985;28;20382;-74
2022/08/26 01:25:35;;;;;;;10.50;2.20;;;;;;;18.04;100.00;101769.03;5092350;28;20035;-73
2022/08/26 01:28:07;;;;;;;7.10;1.27;;;;;;;18.01;100.00;101761.31;5092163;28;20082;-73
2022/08/26 01:30:33;;;;;;;;;;;;;;;18.01;100.00;101764.81;5092466;28;20034;-73
2022/08/26 01:33:02;;;;;;;6.35;1.23;;;;;;;17.97;100.00;101767.03;5092040;28;19912;-73
2022/08/26 01:35:28;;;;;;;8.38;1.60;;;;;;;18.00;100.00;101767.69;5091377;28;20075;-73
2022/08/26 01:37:54;;;;;;;5.22;1.50;;;;;;;17.99;100.00;101774.94;5092149;28;20032;-73
2022/08/26 01:40:24;;;;;;;6.03;1.20;;;;;;;18.00;100.00;101778.47;5091446;28;20035;-73
2022/08/26 01:42:52;;;;;;;5.07;1.30;;;;;;;18.02;100.00;101779.13;5091914;28;20032;-73
2022/08/26 01:45:22;;;;;;;6.45;1.25;;;;;;;18.03;100.00;101778.13;5073310;28;20024;-73
2022/08/26 01:47:49;;;;;;;5.75;1.65;;;;;;;18.04;100.00;101777.13;5091918;28;20061;-73
2022/08/26 01:50:22;;;;;;;7.18;1.60;;;;;;;18.04;100.00;101774.44;5091125;28;20060;-74
2022/08/26 01:52:48;;;;;;;6.97;1.30;;;;;;;18.05;100.00;101781.47;5091935;28;20024;-73
2022/08/26 01:55:17;;;;;;;6.68;1.30;;;;;;;18.07;100.00;101782.19;5091444;28;20036;-74
2022/08/26 01:57:45;;;;;;;6.72;2.00;;;;;;;18.06;100.00;101780.47;5091689;28;20454;-74
2022/08/26 02:00:12;;;;;;;5.63;1.40;;;;;;;18.07;100.00;101782.19;5091320;28;20426;-74
2022/08/26 02:02:40;;;;;;;4.82;1.08;;;;;;;18.05;100.00;101784.19;5093011;28;20035;-73
2022/08/26 02:05:09;;;;;;;5.53;1.45;;;;;;;18.04;100.00;101786.03;5095478;28;20417;-73
2022/08/26 02:07:37;;;;;;;8.20;1.58;;;;;;;18.06;100.00;101786.69;5095582;28;20032;-73
2022/08/26 02:10:03;;;;;;;8.95;1.50;;;;;;;18.06;100.00;101786.69;5095499;28;20031;-73
2022/08/26 02:12:29;;;;;;;2.63;0.90;;;;;;;18.06;100.00;101789.41;5095050;28;20024;-73
2022/08/26 02:14:58;;;;;;;3.63;1.02;;;;;;;18.06;100.00;101780.47;5095562;28;20034;-73
2022/08/26 02:17:42;;;;;;;4.93;1.20;;;;;;;18.06;100.00;101780.47;5095103;28;20048;-73
2022/08/26 02:20:09;;;;;;;4.15;1.33;;;;;;;18.05;100.00;101776.09;5095455;28;20399;-73
2022/08/26 02:22:34;;;;;;;5.97;1.30;;;;;;;18.02;100.00;101782.69;5095286;28;20024;-73
2022/08/26 02:25:15;;;;;;;3.90;1.27;;;;;;;18.01;100.00;101780.16;5095064;28;20055;-73
2022/08/26 02:27:40;;;;;;;6.95;1.40;;;;;;;17.98;100.00;101787.53;5095074;28;20392;-73
2022/08/26 02:30:06;;;;;;;7.40;1.73;;;;;;;17.97;100.00;101775.09;5095310;28;20111;-72
2022/08/26 02:32:31;;;;;;;5.10;1.52;;;;;;;17.95;100.00;101777.09;5094868;28;20052;-72
2022/08/26 02:34:57;;;;;;;4.07;1.23;;;;;;;17.96;100.00;101775.25;5094937;28;20032;-73
2022/08/26 02:37:22;;;;;;;5.53;1.20;;;;;;;17.96;100.00;101773.41;5094488;28;20065;-74
2022/08/26 02:39:47;;;;;;;8.60;2.00;;;;;;;17.97;100.00;101780.47;5094897;28;20130;-73
2022/08/26 02:42:13;;;;;;;9.60;1.20;;;;;;;17.97;100.00;101780.47;5094432;28;20028;-74
2022/08/26 02:44:38;;;;;;;3.78;1.20;;;;;;;17.95;100.00;101785.16;5094900;28;20032;-72
2022/08/26 02:47:05;;;;;;;6.85;1.08;;;;;;;17.93;100.00;101775.59;5094810;28;20039;-73
2022/08/26 02:49:31;;;;;;;3.08;0.85;;;;;;;17.92;100.00;101779.28;5095016;28;20483;-72
2022/08/26 02:51:59;;;;;;;6.47;1.15;;;;;;;17.93;100.00;101778.28;5094552;28;20036;-73
2022/08/26 02:54:25;;;;;;;4.13;1.15;;;;;;;17.94;100.00;101778.13;5094194;28;20118;-73
2022/08/26 02:56:50;;;;;;;8.23;1.35;;;;;;;17.98;100.00;101779.44;5094352;28;20115;-73
2022/08/26 02:59:16;;;;;;;7.43;1.00;;;;;;;18.02;100.00;101773.75;5094348;28;20040;-73
2022/08/26 03:01:43;;;;;;;7.10;1.13;;;;;;;18.03;100.00;101773.56;5094604;28;20035;-73
2022/08/26 03:04:11;;;;;;;3.33;0.98;;;;;;;18.06;100.00;101773.25;5094555;28;20115;-73
2022/08/26 03:06:37;;;;;;;4.18;1.00;;;;;;;18.08;100.00;101773.94;5093904;28;20032;-74
2022/08/26 03:09:04;;;;;;;6.07;1.23;;;;;;;18.09;100.00;101770.25;5059610;28;20387;-74
2022/08/26 03:11:29;;;;;;;8.95;1.90;;;;;;;18.12;100.00;101779.81;5093910;28;20032;-73
2022/08/26 03:13:55;;;;;;;6.25;1.20;;;;;;;18.13;100.00;101776.97;5094623;28;20035;-73
2022/08/26 03:16:20;;;;;;;4.55;1.35;;;;;;;18.13;100.00;101771.56;5093591;28;20059;-73
2022/08/26 03:18:46;;;;;;;3.50;1.10;;;;;;;18.13;100.00;101776.13;5094175;28;20055;-73
2022/08/26 03:21:14;;;;;;;3.42;1.10;;;;;;;18.14;100.00;101777.81;5094264;28;20032;-73
2022/08/26 03:23:41;;;;;;;6.18;1.10;;;;;;;18.15;100.00;101776.78;5093704;28;20433;-73
2022/08/26 03:26:10;;;;;;;7.13;1.20;;;;;;;18.15;100.00;101764.19;5093714;28;20040;-73
2022/08/26 03:30:38;;;;;;;3.45;1.10;;;;;;;18.15;100.00;101753.41;5075439;28;20392;-73
2022/08/26 03:31:21;;;;;;;7.85;1.30;;;;;;;18.13;100.00;101758.09;5093494;28;20032;-75
2022/08/26 03:33:46;;;;;;;2.38;1.33;;;;;;;18.13;100.00;101759.97;5094112;28;20082;-73
2022/08/26 03:36:12;;;;;;;7.60;1.38;;;;;;;18.08;100.00;101765.84;5075760;28;20067;-74
2022/08/26 03:38:37;;;;;;;8.40;1.25;;;;;;;18.02;100.00;101755.75;5093386;28;20316;-74
2022/08/26 03:41:03;;;;;;;6.80;1.33;;;;;;;17.96;100.00;101748.34;5093992;28;20036;-73
2022/08/26 03:43:28;;;;;;;1.92;1.00;;;;;;;17.89;100.00;101755.34;5075559;28;20089;-74
2022/08/26 03:45:53;;;;;;;6.72;1.40;;;;;;;17.82;100.00;101757.84;5093778;28;20097;-73
2022/08/26 03:48:18;;;;;;;4.38;1.10;;;;;;;17.79;100.00;101755.50;5093643;28;20063;-73
2022/08/26 03:50:44;;;;;;;3.67;1.00;;;;;;;17.77;100.00;101755.66;5093224;28;20039;-73
2022/08/26 03:53:09;;;;;;;4.68;1.10;;;;;;;17.74;100.00;101756.00;5093348;28;20472;-74
2022/08/26 03:55:35;;;;;;;5.70;1.10;;;;;;;17.72;100.00;101759.84;5093165;28;20036;-74
2022/08/26 03:58:00;;;;;;;6.15;1.20;;;;;;;17.72;100.00;101758.00;5093669;28;20516;-74
2022/08/26 04:00:27;;;;;;;4.63;1.30;;;;;;;17.72;100.00;101752.63;5093187;28;20032;-74
2022/08/26 04:02:52;;;;;;;4.18;0.98;;;;;;;17.77;100.00;101750.28;5093619;28;20119;-74
2022/08/26 04:05:19;;;;;;;7.22;1.10;;;;;;;17.83;100.00;101746.09;5093458;28;20150;-74
2022/08/26 04:07:45;;;;;;;4.22;1.10;;;;;;;17.87;100.00;101739.38;5092580;28;20043;-74
2022/08/26 04:10:13;;;;;;;2.88;0.98;;;;;;;17.93;100.00;101752.19;5093243;28;20036;-72
2022/08/26 04:12:40;;;;;;;12.25;1.50;;;;;;;17.99;100.00;101753.41;5092833;28;20035;-73
2022/08/26 04:15:12;;;;;;;4.45;1.10;;;;;;;18.03;100.00;101761.97;5093220;28;20135;-72
2022/08/26 04:17:37;;;;;;;6.43;1.52;;;;;;;18.04;100.00;101759.09;5092541;28;20040;-73
2022/08/26 04:20:04;;;;;;;11.82;1.50;;;;;;;18.08;100.00;101760.47;5074751;28;20039;-73
2022/08/26 04:22:30;;;;;;;5.38;1.30;;;;;;;18.11;100.00;101764.69;5092457;28;20046;-74
2022/08/26 04:24:56;;;;;;;5.07;1.40;;;;;;;18.11;100.00;101759.31;5092674;28;20411;-73
2022/08/26 04:27:21;;;;;;;9.60;1.55;;;;;;;18.12;100.00;101760.97;5092976;28;20543;-74
2022/08/26 04:29:47;;;;;;;8.73;2.00;;;;;;;18.12;100.00;101752.88;5092424;28;20036;-73
2022/08/26 04:32:12;;;;;;;9.85;1.20;;;;;;;18.12;100.00;101751.06;5074280;28;20063;-73
2022/08/26 04:34:38;;;;;;;8.23;1.67;;;;;;;18.13;100.00;101754.56;5092249;28;20032;-74
2022/08/26 04:37:04;;;;;;;15.80;2.40;;;;;;;18.14;100.00;101759.81;5092298;28;20051;-73
2022/08/26 04:39:30;;;;;;;5.82;1.50;;;;;;;18.13;100.00;101759.97;5092251;28;20040;-74
2022/08/26 04:41:59;;;;;;;6.22;1.20;;;;;;;18.11;100.00;101754.75;5092784;28;20036;-74
2022/08/26 04:44:27;;;;;;;12.73;1.40;;;;;;;18.12;100.00;101766.34;5092677;28;20039;-74
2022/08/26 04:46:53;;;;;;;10.02;1.63;;;;;;;18.10;100.00;101763.00;5092281;28;20062;-74
2022/08/26 04:49:19;;;;;;;7.20;1.40;;;;;;;18.11;100.00;101767.38;5092431;28;20024;-74
2022/08/26 04:51:46;;;;;;;5.63;1.40;;;;;;;18.12;100.00;101779.81;5092147;28;20505;-74
2022/08/26 04:54:12;;;;;;;6.10;1.50;;;;;;;18.12;100.00;101775.28;5092155;28;20426;-74
2022/08/26 04:56:41;;;;;;;5.68;1.13;;;;;;;18.11;100.00;101778.97;5092165;28;20081;-74
2022/08/26 04:59:09;;;;;;;2.78;0.93;;;;;;;18.11;100.00;101778.97;5092675;28;20356;-74
2022/08/26 05:01:34;;;;;;;6.20;1.20;;;;;;;18.13;100.00;101785.03;5092020;28;20031;-73
2022/08/26 05:04:00;;;;;;;4.72;1.35;;;;;;;18.15;100.00;101787.56;5092551;28;20418;-74
2022/08/26 05:06:27;;;;;;;6.70;1.63;;;;;;;18.17;100.00;101780.19;5074152;28;20068;-74
2022/08/26 05:08:53;;;;;;;6.25;1.30;;;;;;;18.18;100.00;101779.16;5091923;28;20131;-74
2022/08/26 05:11:20;;;;;;;3.97;1.30;;;;;;;18.19;100.00;101771.94;5092470;28;20043;-73
2022/08/26 05:13:45;;;;;;;10.75;1.10;;;;;;;18.21;100.00;101780.69;5091823;28;20114;-74
2022/08/26 05:16:12;;;;;;;4.63;1.30;;;;;;;18.22;100.00;101791.28;5073695;28;20474;-74
2022/08/26 05:18:38;;;;;;;8.20;1.15;;;;;;;18.23;100.00;101789.44;5091600;28;20028;-74
2022/08/26 05:21:04;;;;;;;8.07;1.35;;;;;;;18.23;100.00;101787.59;5092163;28;20085;-73
2022/08/26 05:23:30;;;;;;;7.00;1.55;;;;;;;18.22;100.00;101793.13;5074029;28;20036;-75
2022/08/26 05:25:58;;;;;;;7.43;1.75;;;;;;;18.21;100.00;101786.88;5091957;28;20031;-73
2022/08/26 05:28:25;;;;;;;4.75;1.30;;;;;;;18.20;100.00;101796.00;5091962;28;20024;-73
2022/08/26 05:30:51;;;;;;;5.85;1.15;;;;;;;18.21;100.00;101796.84;5091442;28;20028;-74
2022/08/26 05:33:17;;;;;;;5.70;1.30;;;;;;;18.21;100.00;101791.44;5091771;28;20495;-74
2022/08/26 05:35:44;;;;;;;3.92;1.00;;;;;;;18.24;100.00;101799.19;5091512;28;20175;-74
2022/08/26 05:38:13;;;;;;;6.18;1.20;;;;;;;18.27;100.00;101797.03;5094249;28;20039;-73
2022/08/26 05:40:45;;;;;;;6.35;1.40;;;;;;;18.31;100.00;101794.84;5095538;28;20024;-74
2022/08/26 05:43:12;;;;;;;5.75;1.48;;;;;;;18.35;100.00;101803.41;5096036;28;20027;-74
2022/08/26 05:45:39;;;;;;;6.90;1.25;;;;;;;18.38;100.00;101795.84;5095461;28;20121;-74
2022/08/26 05:48:08;;;;;;;5.45;1.60;;;;;;;18.42;100.00;101793.66;5095654;28;20020;-74
2022/08/26 05:50:38;;;;;;;5.72;1.20;;;;;;;18.47;100.00;101794.84;5095483;28;20032;-85
2022/08/26 05:53:05;;;;;;;7.63;1.33;;;;;;;18.52;100.00;101798.88;5095615;28;20410;-74
2022/08/26 05:55:32;;;;;;;3.53;1.00;;;;;;;18.58;100.00;101811.69;5077520;28;20081;-75
2022/08/26 05:57:57;;;;;;;4.38;1.30;;;;;;;18.59;100.00;101816.06;5077060;28;20032;-75
2022/08/26 06:00:22;;;;;;;4.75;0.93;;;;;;;18.61;100.00;101814.03;5095659;28;20055;-74
2022/08/26 06:02:48;;;;;;;4.47;0.93;;;;;;;18.65;100.00;101815.41;5095366;28;20028;-74
2022/08/26 06:05:13;;;;;;;6.57;1.60;;;;;;;18.68;100.00;101809.66;5095487;28;20064;-73
2022/08/26 06:10:22;;;;;;;6.97;1.25;;;;;;;18.74;100.00;101814.38;5095925;28;20047;-74
2022/08/26 06:12:48;;;;;;;9.13;1.33;;;;;;;18.77;100.00;101811.34;5094975;28;20024;-74
2022/08/26 06:15:13;;;;;;;3.90;0.90;;;;;;;18.78;100.00;101820.25;5095168;28;20040;-73
2022/08/26 06:17:39;;;;;;;4.07;1.10;;;;;;;18.81;100.00;101815.38;5094922;28;20148;-73
2022/08/26 06:20:05;;;;;;;3.22;0.90;;;;;;;18.81;100.00;101820.78;5095299;28;20040;-72
2022/08/26 06:27:58;;;;;;;6.45;1.05;;;;;;;18.68;100.00;101825.84;5094948;28;20490;-74
2022/08/26 06:30:24;;;;;;;6.72;1.02;;;;;;;18.63;100.00;101829.03;5095407;28;20135;-74
2022/08/26 06:32:49;;;;;;;6.22;1.30;;;;;;;18.57;100.00;101834.25;5060006;28;20468;-74
2022/08/26 06:35:15;;;;;;;4.47;1.33;;;;;;;18.55;100.00;101842.50;5094913;28;20029;-74
2022/08/26 06:37:41;;;;;;;2.83;1.25;;;;;;;18.54;100.00;101853.44;5076531;28;20047;-74
2022/08/26 06:40:08;;;;;;;4.20;0.82;;;;;;;18.53;100.00;101844.53;5095028;28;20113;-71
2022/08/26 06:42:33;;;;;;;6.30;0.80;;;;;;;18.53;100.00;101857.16;5094938;28;20047;-73
2022/08/26 06:44:58;;;;;;;7.97;1.40;;;;;;;18.52;100.00;101850.91;5094431;28;20028;-72
2022/08/26 06:47:24;;;;;;;6.35;1.30;;;;;;;18.50;100.00;101850.25;5094841;28;20437;-74
2022/08/26 06:49:50;;;;;;;3.72;1.05;;;;;;;18.53;100.00;101847.22;5093965;28;20032;-73
2022/08/26 06:52:16;;;;;;;3.60;1.30;;;;;;;18.59;100.00;101848.41;5094769;28;20024;-73
2022/08/26 06:54:42;;;;;;;4.75;1.13;;;;;;;18.67;100.00;101851.09;5076258;28;20115;-75
2022/08/26 06:57:09;;;;;;;4.82;1.08;;;;;;;18.71;99.50;101846.22;5094589;28;20122;-73
2022/08/26 06:59:34;;;;;;;4.40;1.00;;;;;;;18.73;99.85;101852.28;5094339;28;20028;-73
2022/08/26 07:01:59;;;;;;;5.75;1.08;;;;;;;18.73;99.29;101852.28;5094199;28;20396;-74
2022/08/26 07:04:26;;;;;;;3.80;0.93;;;;;;;18.70;100.00;101850.75;5094543;28;20260;-74
2022/08/26 07:06:52;;;;;;;6.32;1.70;;;;;;;18.65;99.80;101859.34;5094034;28;20047;-73
2022/08/26 07:09:17;;;;;;;12.27;1.58;;;;;;;18.59;100.00;101853.81;5075912;28;20028;-73
2022/08/26 07:11:43;;;;;;;5.53;1.13;;;;;;;18.56;100.00;101848.75;5094820;28;20077;-84
2022/08/26 07:14:09;;;;;;;4.70;0.98;;;;;;;18.53;100.00;101857.16;5094362;28;20056;-73
2022/08/26 07:16:35;;;;;;;7.82;1.40;;;;;;;18.48;100.00;101857.66;5094058;28;20395;-72
2022/08/26 07:19:01;;;;;;;16.75;2.33;;;;;;;18.45;100.00;101874.16;5094187;28;20127;-73
2022/08/26 07:21:27;;;;;;;6.75;1.45;;;;;;;18.39;100.00;101874.81;5094029;28;20067;-73
2022/08/26 07:23:53;;;;;;;4.20;1.27;;;;;;;18.30;100.00;101877.50;5075456;28;20028;-74
2022/08/26 07:26:21;;;;;;;5.65;0.90;;;;;;;18.25;100.00;101876.31;5094130;28;20464;-73
2022/08/26 07:28:50;;;;;;;10.70;1.38;;;;;;;18.21;100.00;101873.09;5093869;28;20028;-74
2022/08/26 07:31:16;;;;;;;6.85;1.30;;;;;;;18.20;100.00;101876.81;5094029;28;20024;-74
2022/08/26 07:33:42;;;;;;;4.43;1.00;;;;;;;18.19;100.00;101883.19;5093805;28;20052;-74
2022/08/26 07:36:09;;;;;;;9.43;1.45;;;;;;;18.21;100.00;101881.16;5075188;28;20448;-74
2022/08/26 07:38:37;;;;;;;6.38;1.10;;;;;;;18.21;100.00;101888.41;5093565;28;20051;-74
2022/08/26 07:41:03;;;;;;;4.72;1.15;;;;;;;18.21;100.00;101900.00;5075151;28;20036;-74
2022/08/26 07:43:29;;;;;;;175.43;11.13;;;;;;;18.21;100.00;101902.72;5093861;28;20373;-74
2022/08/26 07:45:55;;;;;;;5.57;1.05;;;;;;;18.26;100.00;101896.84;5093110;28;20024;-74
2022/08/26 07:48:20;;;;;;;6.50;1.10;;;;;;;18.32;100.00;101912.34;5093485;28;20038;-74
2022/08/26 07:50:46;;;;;;;6.35;1.58;;;;;;;18.40;100.00;101904.28;5093354;28;20472;-74
2022/08/26 07:53:12;;;;;;;5.93;1.23;;;;;;;18.42;100.00;101902.28;5092714;28;20400;-72
2022/08/26 07:55:38;;;;;;;6.07;1.05;;;;;;;18.41;99.76;101905.16;5075439;28;20024;-72
2022/08/26 07:58:07;;;;;;;3.63;1.10;;;;;;;18.41;99.97;101910.53;5074938;28;20039;-74
2022/08/26 08:00:33;;;;;;;3.63;1.02;;;;;;;18.41;100.00;101907.84;5092512;28;20039;-74
2022/08/26 08:03:04;;;;;;;6.25;0.90;;;;;;;18.40;100.00;101904.28;5092461;28;20024;-73
2022/08/26 08:05:31;;;;;;;8.20;1.00;;;;;;;18.40;100.00;101911.53;5093262;28;20077;-76
2022/08/26 08:07:57;;;;;;;4.20;1.10;;;;;;;18.40;100.00;101906.16;5092598;28;20108;-78
2022/08/26 08:10:25;;;;;;;4.60;1.00;;;;;;;18.42;100.00;101901.41;5092902;28;20032;-74
2022/08/26 08:12:51;;;;;;;3.88;1.08;;;;;;;18.43;100.00;101901.25;5074620;28;20035;-77
2022/08/26 08:15:19;;;;;;;4.80;1.17;;;;;;;18.49;99.47;101907.84;5092862;28;20133;-74
2022/08/26 08:17:45;;;;;;;5.50;0.90;;;;;;;18.52;99.09;101909.38;5074548;28;20481;-73
2022/08/26 08:20:12;;;;;;;6.15;1.98;;;;;;;18.56;97.67;101900.78;5092440;28;20075;-73
2022/08/26 08:22:38;;;;;;;6.68;1.38;;;;;;;18.58;97.65;101912.22;5092994;28;20093;-74
2022/08/26 08:25:04;;;;;;;8.35;1.88;;;;;;;18.61;96.65;101911.06;5092614;28;20036;-73
2022/08/26 08:27:34;;;;;;;1.83;0.70;;;;;;;18.74;96.15;101908.72;5093091;28;20032;-75
2022/08/26 08:29:59;;;;;;;4.72;0.80;;;;;;;18.94;94.47;101906.56;5092363;28;20461;-73
2022/08/26 08:32:25;;;;;;;3.20;0.80;;;;;;;19.16;93.24;101913.13;5092683;28;20032;-72
2022/08/26 08:34:51;;;;;;;3.80;1.00;;;;;;;19.38;91.46;101911.59;5092996;28;20032;-72
2022/08/26 08:37:17;;;;;;;1.67;0.70;;;;;;;19.57;90.50;101914.91;5092281;28;20036;-72
2022/08/26 08:39:42;;;;;;;6.85;0.80;;;;;;;19.73;89.71;101914.03;5092826;28;20162;-73
2022/08/26 08:42:23;;;;;;;6.70;0.93;;;;;;;19.88;87.43;101917.75;5092364;28;20024;-75
2022/08/26 08:44:52;;;;;;;2.80;0.85;;;;;;;20.04;86.58;101918.69;5092542;28;20032;-75
2022/08/26 08:47:29;;;;;;;3.85;1.05;;;;;;;20.11;85.69;101919.66;5092483;28;20036;-74
2022/08/26 08:50:01;;;;;;;4.43;1.20;;;;;;;20.15;83.99;101923.69;5092316;28;20039;-78
2022/08/26 08:52:32;;;;;;;3.90;0.93;;;;;;;20.16;84.19;101914.56;5092751;28;20048;-74
2022/08/26 08:54:57;;;;;;;5.50;1.00;;;;;;;20.17;84.40;101910.00;5092265;28;20103;-75
2022/08/26 08:57:56;;;;;;;2.78;1.20;;;;;;;20.26;84.64;101908.97;5092444;28;20425;-75
2022/08/26 09:00:23;;;;;;;5.32;1.30;;;;;;;20.33;85.71;101915.34;5091927;28;20054;-74
2022/08/26 09:02:55;;;;;;;4.32;1.25;;;;;;;20.32;86.75;101912.78;5092342;28;20511;-73
2022/08/26 09:05:30;;;;;;;6.85;1.58;;;;;;;20.18;85.62;101915.25;5092103;28;20028;-73
2022/08/26 09:08:01;;;;;;;4.57;1.17;;;;;;;19.91;88.35;101919.22;5092269;28;20387;-75
2022/08/26 09:10:36;;;;;;;8.90;1.27;;;;;;;19.79;89.88;101917.94;5092644;28;20024;-76
2022/08/26 09:13:08;;;;;;;2.60;1.30;;;;;;;19.73;91.00;101924.84;5091843;28;20046;-74
2022/08/26 09:15:48;;;;;;;7.35;1.33;;;;;;;19.77;90.47;101925.34;5092218;28;20032;-73
2022/08/26 09:18:38;;;;;;;5.72;1.40;;;;;;;19.83;89.38;101932.78;5091832;28;20484;-76
2022/08/26 09:21:07;;;;;;;7.50;1.75;;;;;;;19.97;88.42;101926.63;5091925;28;20478;-76
2022/08/26 09:23:35;;;;;;;4.45;1.52;;;;;;;20.11;87.72;101922.38;5092079;28;20537;-75
2022/08/26 09:26:22;;;;;;;4.35;1.50;;;;;;;20.16;87.46;101929.94;5073643;28;20396;-76
2022/08/26 09:28:55;;;;;;;6.72;1.40;;;;;;;19.94;87.56;101918.06;5091624;28;20047;-75
2022/08/26 09:31:23;;;;;;;8.35;1.50;;;;;;;19.75;89.40;101920.13;5091541;28;20101;-75
2022/08/26 09:34:04;;;;;;;4.75;1.27;;;;;;;19.62;88.56;101917.13;5091995;28;20055;-76
2022/08/26 09:36:54;;;;;;;4.75;1.60;;;;;;;19.68;88.94;101906.47;5092277;28;20028;-76
2022/08/26 09:39:38;;;;;;;6.25;1.38;;;;;;;19.88;88.12;101903.38;5091807;28;20363;-76
2022/08/26 09:42:21;;;;;;;6.50;1.30;;;;;;;20.08;86.48;101907.34;5091802;28;20040;-74
2022/08/26 09:44:53;;;;;;;5.07;1.63;;;;;;;20.20;84.37;101915.91;5091824;28;20387;-74
2022/08/26 09:47:30;;;;;;;7.38;2.05;;;;;;;20.14;84.33;101918.47;5091366;28;20383;-74
2022/08/26 09:50:17;;;;;;;8.07;1.90;;;;;;;20.11;85.43;101926.91;5091679;28;20028;-74
2022/08/26 09:52:43;;;;;;;10.75;1.77;;;;;;;20.17;83.94;101928.91;5091100;28;20127;-75
2022/08/26 09:55:08;;;;;;;8.77;1.90;;;;;;;20.21;84.33;101930.25;5091422;28;20530;-75
2022/08/26 09:57:43;;;;;;;5.32;1.55;;;;;;;20.33;84.70;101936.97;5091536;28;20032;-74
2022/08/26 10:00:34;;;;;;;6.60;1.40;;;;;;;20.52;82.32;101943.75;5091284;28;20085;-75
2022/08/26 10:03:02;;;;;;;6.65;1.90;;;;;;;20.71;81.36;101934.38;5091896;28;20025;-76
2022/08/26 10:05:29;;;;;;;5.65;1.23;;;;;;;20.86;80.43;101931.72;5092090;28;20028;-75
2022/08/26 10:07:56;;;;;;;8.27;1.40;;;;;;;21.11;81.38;101920.72;5073418;28;20428;-75
2022/08/26 10:10:28;;;;;;;5.45;1.20;;;;;;;21.29;78.64;101923.09;5091304;28;20061;-74
2022/08/26 10:13:03;;;;;;;5.07;1.38;;;;;;;21.35;77.12;101933.19;5092030;28;20084;-74
2022/08/26 10:15:40;;;;;;;9.10;1.65;;;;;;;21.27;76.71;101931.41;5091634;28;20051;-74
2022/08/26 10:18:14;;;;;;;5.78;1.50;;;;;;;21.10;76.46;101919.88;5091327;28;20475;-74
2022/08/26 10:20:50;;;;;;;4.32;1.38;;;;;;;20.93;78.12;101921.03;5092156;28;20129;-76
2022/08/26 10:23:19;;;;;;;10.55;1.45;;;;;;;20.82;79.23;101916.06;5092131;28;20496;-74
2022/08/26 10:26:34;;;;;;;6.53;1.30;;;;;;;20.69;79.35;101913.94;5095269;28;20036;-73
2022/08/26 10:29:06;;;;;;;7.75;1.70;;;;;;;20.63;79.29;101920.91;5013061;28;20038;-72
2022/08/26 10:31:50;;;;;;;8.60;1.65;;;;;;;20.58;77.74;101920.59;5089237;28;20148;-74
2022/08/26 10:34:16;;;;;;;4.38;1.08;;;;;;;20.61;78.76;101920.22;5094987;28;20460;-74
2022/08/26 10:36:55;;;;;;;10.90;1.90;;;;;;;20.68;79.26;101918.50;5095280;28;20107;-74
2022/08/26 10:39:45;;;;;;;7.70;1.38;;;;;;;20.75;78.90;101932.16;5077193;28;20036;-74
2022/08/26 10:42:23;;;;;;;8.38;2.00;;;;;;;20.89;77.95;101925.97;5094631;28;20063;-75
2022/08/26 10:44:52;;;;;;;5.05;1.20;;;;;;;21.02;75.55;101930.78;5095079;28;20483;-74
2022/08/26 10:47:27;;;;;;;3.65;1.10;;;;;;;21.09;74.80;101934.44;5094522;28;20036;-75
2022/08/26 10:49:53;;;;;;;3.65;1.25;;;;;;;21.29;73.96;101933.91;5076728;28;20421;-74
2022/08/26 10:52:39;;;;;;;11.27;1.40;;;;;;;21.44;73.84;101936.66;5094363;28;20328;-73
2022/08/26 10:55:15;;;;;;;7.15;1.40;;;;;;;21.46;72.76;101935.41;5094602;28;20028;-75
2022/08/26 10:58:20;;;;;;;5.53;1.38;;;;;;;21.42;73.19;101930.56;5094777;28;20114;-75
2022/08/26 11:03:52;;;;;;;5.40;1.50;;;;;;;21.73;71.75;101935.00;5094855;28;20126;-75
2022/08/26 11:06:18;;;;;;;5.38;1.55;;;;;;;21.71;71.06;101940.63;5094503;28;20380;-75
2022/08/26 11:08:51;;;;;;;6.45;1.45;;;;;;;21.73;71.30;101940.44;5094402;28;20032;-74
2022/08/26 11:11:38;;;;;;;9.48;1.67;;;;;;;21.75;71.45;101941.06;5094407;28;20081;-75
2022/08/26 11:14:31;;;;;;;5.55;1.77;;;;;;;21.90;72.19;101943.78;5094572;28;20024;-76
2022/08/26 11:16:58;;;;;;;5.45;1.40;;;;;;;22.03;69.76;101943.97;5083860;28;20506;-75
2022/08/26 11:19:40;;;;;;;7.65;2.90;;;;;;;21.92;69.16;101937.16;5094178;28;20042;-78
2022/08/26 11:22:26;;;;;;;8.13;1.52;;;;;;;21.88;69.10;101945.84;5094236;28;20020;-74
2022/08/26 11:24:52;;;;;;;6.00;1.60;;;;;;;21.83;68.70;101938.28;5094187;28;20518;-74
2022/08/26 11:27:23;;;;;;;6.47;1.50;;;;;;;21.76;69.82;101937.34;5093812;28;20059;-76
2022/08/26 11:30:41;;;;;;;9.23;1.83;;;;;;;21.78;72.36;101940.69;5093899;28;20518;-78
2022/08/26 11:33:07;;;;;;;5.10;1.40;;;;;;;21.69;71.38;101941.81;5011861;28;20064;-79
2022/08/26 11:35:33;;;;;;;7.63;1.60;;;;;;;21.77;71.05;101942.56;5011441;28;20279;-76
2022/08/26 11:38:11;;;;;;;6.07;1.60;;;;;;;21.67;69.54;101939.31;5057710;28;20476;-75
2022/08/26 11:40:37;;;;;;;5.38;1.15;;;;;;;21.52;70.66;101941.16;5093440;28;20028;-75